sensor_id;sensor_type;location;lat;lon;timestamp;P1;durP1;ratioP1;P2;durP2;ratioP2
60233;SDS011;49514;43.538;-5.708;2022-12-07T00:01:19;16.48;;;7.82;;
60233;SDS011;49514;43.538;-5.708;2022-12-07T00:03:49;16.67;;;7.85;;
60233;SDS011;49514;43.538;-5.708;2022-12-07T00:06:17;15.75;;;7.65;;
60233;SDS011;49514;43.538;-5.708;2022-12-07T00:08:45;12.52;;;7.47;;
60233;SDS011;49514;43.538;-5.708;2022-12-07T00:13:44;14.68;;;7.65;;
60233;SDS011;49514;43.538;-5.708;2022-12-07T00:16:12;13.52;;;7.60;;
60233;SDS011;49514;43.538;-5.708;2022-12-07T00:18:41;14.73;;;8.43;;
60233;SDS011;49514;43.538;-5.708;2022-12-07T00:21:18;14.52;;;7.95;;
60233;SDS011;49514;43.538;-5.708;2022-12-07T00:23:49;16.63;;;7.93;;
60233;SDS011;49514;43.538;-5.708;2022-12-07T00:28:49;17.85;;;8.73;;
60233;SDS011;49514;43.538;-5.708;2022-12-07T00:31:18;18.95;;;8.95;;
60233;SDS011;49514;43.538;-5.708;2022-12-07T00:33:46;16.70;;;8.90;;
60233;SDS011;49514;43.538;-5.708;2022-12-07T00:36:15;18.50;;;9.38;;
60233;SDS011;49514;43.538;-5.708;2022-12-07T00:38:44;16.33;;;9.18;;
60233;SDS011;49514;43.538;-5.708;2022-12-07T00:41:15;19.10;;;8.82;;
60233;SDS011;49514;43.538;-5.708;2022-12-07T00:43:46;20.08;;;9.75;;
60233;SDS011;49514;43.538;-5.708;2022-12-07T00:46:14;20.73;;;10.02;;
60233;SDS011;49514;43.538;-5.708;2022-12-07T00:48:41;15.27;;;8.82;;
60233;SDS011;49514;43.538;-5.708;2022-12-07T00:51:09;19.38;;;9.20;;
60233;SDS011;49514;43.538;-5.708;2022-12-07T00:53:38;14.88;;;8.57;;
60233;SDS011;49514;43.538;-5.708;2022-12-07T00:56:06;21.23;;;9.13;;
60233;SDS011;49514;43.538;-5.708;2022-12-07T00:58:43;16.77;;;9.07;;
60233;SDS011;49514;43.538;-5.708;2022-12-07T01:01:15;13.85;;;8.45;;
60233;SDS011;49514;43.538;-5.708;2022-12-07T01:03:41;20.25;;;9.07;;
60233;SDS011;49514;43.538;-5.708;2022-12-07T01:06:08;14.32;;;8.18;;
60233;SDS011;49514;43.538;-5.708;2022-12-07T01:08:34;19.52;;;9.00;;
60233;SDS011;49514;43.538;-5.708;2022-12-07T01:11:06;14.63;;;8.43;;
60233;SDS011;49514;43.538;-5.708;2022-12-07T01:13:33;19.02;;;8.85;;
60233;SDS011;49514;43.538;-5.708;2022-12-07T01:16:01;16.08;;;8.50;;
60233;SDS011;49514;43.538;-5.708;2022-12-07T01:18:30;19.10;;;9.57;;
60233;SDS011;49514;43.538;-5.708;2022-12-07T01:21:02;15.00;;;8.20;;
60233;SDS011;49514;43.538;-5.708;2022-12-07T01:23:31;15.52;;;8.55;;
60233;SDS011;49514;43.538;-5.708;2022-12-07T01:26:00;17.95;;;8.25;;
60233;SDS011;49514;43.538;-5.708;2022-12-07T01:28:30;17.48;;;8.98;;
60233;SDS011;49514;43.538;-5.708;2022-12-07T01:30:57;14.60;;;7.85;;
60233;SDS011;49514;43.538;-5.708;2022-12-07T01:33:29;15.75;;;7.85;;
60233;SDS011;49514;43.538;-5.708;2022-12-07T01:36:05;15.40;;;8.25;;
60233;SDS011;49514;43.538;-5.708;2022-12-07T01:38:34;17.40;;;8.07;;
60233;SDS011;49514;43.538;-5.708;2022-12-07T01:41:01;12.18;;;7.93;;
60233;SDS011;49514;43.538;-5.708;2022-12-07T01:43:29;22.95;;;8.80;;
60233;SDS011;49514;43.538;-5.708;2022-12-07T01:45:57;15.88;;;8.52;;
60233;SDS011;49514;43.538;-5.708;2022-12-07T01:48:26;18.50;;;9.02;;
60233;SDS011;49514;43.538;-5.708;2022-12-07T01:50:56;18.50;;;9.65;;
60233;SDS011;49514;43.538;-5.708;2022-12-07T01:53:29;16.95;;;9.27;;
60233;SDS011;49514;43.538;-5.708;2022-12-07T01:55:58;17.08;;;9.32;;
60233;SDS011;49514;43.538;-5.708;2022-12-07T01:58:25;18.13;;;8.98;;
60233;SDS011;49514;43.538;-5.708;2022-12-07T02:00:52;19.17;;;9.10;;
60233;SDS011;49514;43.538;-5.708;2022-12-07T02:03:24;19.63;;;9.00;;
60233;SDS011;49514;43.538;-5.708;2022-12-07T02:05:55;24.88;;;10.20;;
60233;SDS011;49514;43.538;-5.708;2022-12-07T02:08:22;17.35;;;9.90;;
60233;SDS011;49514;43.538;-5.708;2022-12-07T02:10:49;22.17;;;11.30;;
60233;SDS011;49514;43.538;-5.708;2022-12-07T02:13:19;22.50;;;11.10;;
60233;SDS011;49514;43.538;-5.708;2022-12-07T02:29:27;20.55;;;10.35;;
60233;SDS011;49514;43.538;-5.708;2022-12-07T02:32:22;21.70;;;9.82;;
60233;SDS011;49514;43.538;-5.708;2022-12-07T02:34:58;21.52;;;10.60;;
60233;SDS011;49514;43.538;-5.708;2022-12-07T02:38:21;19.98;;;9.98;;
60233;SDS011;49514;43.538;-5.708;2022-12-07T02:40:40;19.80;;;10.20;;
60233;SDS011;49514;43.538;-5.708;2022-12-07T02:43:24;20.13;;;10.25;;
60233;SDS011;49514;43.538;-5.708;2022-12-07T02:45:56;25.13;;;13.32;;
60233;SDS011;49514;43.538;-5.708;2022-12-07T02:50:57;29.70;;;12.90;;
60233;SDS011;49514;43.538;-5.708;2022-12-07T02:53:43;30.42;;;14.32;;
60233;SDS011;49514;43.538;-5.708;2022-12-07T03:04:15;29.52;;;13.88;;
60233;SDS011;49514;43.538;-5.708;2022-12-07T03:06:54;26.98;;;13.80;;
60233;SDS011;49514;43.538;-5.708;2022-12-07T03:12:10;29.45;;;14.75;;
60233;SDS011;49514;43.538;-5.708;2022-12-07T03:14:49;31.20;;;14.35;;
60233;SDS011;49514;43.538;-5.708;2022-12-07T03:17:27;27.98;;;14.32;;
60233;SDS011;49514;43.538;-5.708;2022-12-07T03:19:58;25.02;;;13.38;;
60233;SDS011;49514;43.538;-5.708;2022-12-07T03:22:28;22.63;;;12.67;;
60233;SDS011;49514;43.538;-5.708;2022-12-07T03:24:58;20.50;;;11.38;;
60233;SDS011;49514;43.538;-5.708;2022-12-07T03:27:28;23.57;;;11.97;;
60233;SDS011;49514;43.538;-5.708;2022-12-07T03:30:17;19.37;;;11.73;;
60233;SDS011;49514;43.538;-5.708;2022-12-07T03:32:58;20.63;;;10.93;;
60233;SDS011;49514;43.538;-5.708;2022-12-07T03:35:34;21.45;;;11.30;;
60233;SDS011;49514;43.538;-5.708;2022-12-07T03:38:08;19.23;;;10.82;;
60233;SDS011;49514;43.538;-5.708;2022-12-07T03:40:48;19.10;;;11.40;;
60233;SDS011;49514;43.538;-5.708;2022-12-07T03:43:20;24.95;;;12.95;;
60233;SDS011;49514;43.538;-5.708;2022-12-07T03:46:00;23.08;;;12.43;;
60233;SDS011;49514;43.538;-5.708;2022-12-07T03:51:21;21.40;;;12.53;;
60233;SDS011;49514;43.538;-5.708;2022-12-07T03:56:48;19.48;;;11.27;;
60233;SDS011;49514;43.538;-5.708;2022-12-07T03:59:16;19.90;;;11.55;;
60233;SDS011;49514;43.538;-5.708;2022-12-07T04:01:44;18.83;;;10.10;;
60233;SDS011;49514;43.538;-5.708;2022-12-07T04:04:18;19.10;;;10.32;;
60233;SDS011;49514;43.538;-5.708;2022-12-07T04:06:44;19.33;;;11.10;;
60233;SDS011;49514;43.538;-5.708;2022-12-07T04:09:11;19.45;;;10.30;;
60233;SDS011;49514;43.538;-5.708;2022-12-07T04:11:40;21.13;;;11.33;;
60233;SDS011;49514;43.538;-5.708;2022-12-07T04:14:06;18.17;;;10.48;;
60233;SDS011;49514;43.538;-5.708;2022-12-07T04:17:03;15.88;;;9.80;;
60233;SDS011;49514;43.538;-5.708;2022-12-07T04:19:31;17.17;;;9.98;;
60233;SDS011;49514;43.538;-5.708;2022-12-07T04:22:00;15.55;;;9.77;;
60233;SDS011;49514;43.538;-5.708;2022-12-07T04:24:27;18.13;;;10.40;;
60233;SDS011;49514;43.538;-5.708;2022-12-07T04:26:54;18.83;;;9.77;;
60233;SDS011;49514;43.538;-5.708;2022-12-07T04:29:22;19.80;;;11.23;;
60233;SDS011;49514;43.538;-5.708;2022-12-07T04:31:49;25.93;;;11.87;;
60233;SDS011;49514;43.538;-5.708;2022-12-07T04:34:16;25.03;;;11.80;;
60233;SDS011;49514;43.538;-5.708;2022-12-07T04:36:44;20.58;;;11.52;;
60233;SDS011;49514;43.538;-5.708;2022-12-07T04:39:21;22.17;;;10.50;;
60233;SDS011;49514;43.538;-5.708;2022-12-07T04:41:50;25.93;;;11.70;;
60233;SDS011;49514;43.538;-5.708;2022-12-07T04:44:17;39.10;;;13.25;;
60233;SDS011;49514;43.538;-5.708;2022-12-07T04:46:45;35.85;;;14.02;;
60233;SDS011;49514;43.538;-5.708;2022-12-07T04:49:13;44.78;;;15.98;;
60233;SDS011;49514;43.538;-5.708;2022-12-07T04:51:40;54.10;;;18.58;;
60233;SDS011;49514;43.538;-5.708;2022-12-07T04:54:07;60.72;;;19.77;;
60233;SDS011;49514;43.538;-5.708;2022-12-07T04:56:34;53.05;;;17.70;;
60233;SDS011;49514;43.538;-5.708;2022-12-07T04:59:02;36.90;;;12.50;;
60233;SDS011;49514;43.538;-5.708;2022-12-07T05:01:29;29.30;;;12.33;;
60233;SDS011;49514;43.538;-5.708;2022-12-07T05:03:57;31.73;;;12.57;;
60233;SDS011;49514;43.538;-5.708;2022-12-07T05:06:23;24.65;;;11.60;;
60233;SDS011;49514;43.538;-5.708;2022-12-07T05:08:50;24.17;;;11.32;;
60233;SDS011;49514;43.538;-5.708;2022-12-07T05:11:17;18.88;;;10.15;;
60233;SDS011;49514;43.538;-5.708;2022-12-07T05:14:04;19.33;;;10.83;;
60233;SDS011;49514;43.538;-5.708;2022-12-07T05:16:47;18.50;;;10.73;;
60233;SDS011;49514;43.538;-5.708;2022-12-07T05:19:16;22.38;;;11.00;;
60233;SDS011;49514;43.538;-5.708;2022-12-07T05:21:44;22.47;;;11.23;;
60233;SDS011;49514;43.538;-5.708;2022-12-07T05:24:13;17.70;;;10.53;;
60233;SDS011;49514;43.538;-5.708;2022-12-07T05:26:41;22.50;;;10.97;;
60233;SDS011;49514;43.538;-5.708;2022-12-07T05:29:15;24.80;;;10.70;;
60233;SDS011;49514;43.538;-5.708;2022-12-07T05:31:43;22.60;;;10.13;;
60233;SDS011;49514;43.538;-5.708;2022-12-07T05:34:10;22.83;;;10.80;;
60233;SDS011;49514;43.538;-5.708;2022-12-07T05:36:37;20.30;;;9.93;;
60233;SDS011;49514;43.538;-5.708;2022-12-07T05:39:04;21.52;;;11.00;;
60233;SDS011;49514;43.538;-5.708;2022-12-07T05:41:31;20.10;;;11.30;;
60233;SDS011;49514;43.538;-5.708;2022-12-07T05:44:16;26.73;;;11.48;;
60233;SDS011;49514;43.538;-5.708;2022-12-07T05:46:42;31.15;;;13.10;;
60233;SDS011;49514;43.538;-5.708;2022-12-07T05:49:09;31.17;;;13.37;;
60233;SDS011;49514;43.538;-5.708;2022-12-07T05:51:36;41.55;;;13.30;;
60233;SDS011;49514;43.538;-5.708;2022-12-07T05:54:02;31.75;;;13.80;;
60233;SDS011;49514;43.538;-5.708;2022-12-07T05:56:29;35.35;;;13.35;;
60233;SDS011;49514;43.538;-5.708;2022-12-07T05:58:56;31.88;;;12.75;;
60233;SDS011;49514;43.538;-5.708;2022-12-07T06:01:41;30.58;;;11.90;;
60233;SDS011;49514;43.538;-5.708;2022-12-07T06:04:08;30.90;;;11.07;;
60233;SDS011;49514;43.538;-5.708;2022-12-07T06:06:35;31.70;;;11.98;;
60233;SDS011;49514;43.538;-5.708;2022-12-07T06:09:02;31.38;;;12.00;;
60233;SDS011;49514;43.538;-5.708;2022-12-07T06:11:29;43.40;;;13.43;;
60233;SDS011;49514;43.538;-5.708;2022-12-07T06:14:14;35.45;;;12.05;;
60233;SDS011;49514;43.538;-5.708;2022-12-07T06:16:41;39.40;;;12.65;;
60233;SDS011;49514;43.538;-5.708;2022-12-07T06:19:08;36.57;;;12.00;;
60233;SDS011;49514;43.538;-5.708;2022-12-07T06:21:35;36.03;;;12.48;;
60233;SDS011;49514;43.538;-5.708;2022-12-07T06:24:02;41.03;;;12.43;;
60233;SDS011;49514;43.538;-5.708;2022-12-07T06:26:29;32.78;;;12.60;;
60233;SDS011;49514;43.538;-5.708;2022-12-07T06:28:56;34.13;;;12.23;;
60233;SDS011;49514;43.538;-5.708;2022-12-07T06:31:23;49.33;;;13.23;;
60233;SDS011;49514;43.538;-5.708;2022-12-07T06:33:50;41.58;;;14.23;;
60233;SDS011;49514;43.538;-5.708;2022-12-07T06:36:17;36.80;;;12.45;;
60233;SDS011;49514;43.538;-5.708;2022-12-07T06:38:43;33.90;;;11.65;;
60233;SDS011;49514;43.538;-5.708;2022-12-07T06:41:10;38.63;;;12.30;;
60233;SDS011;49514;43.538;-5.708;2022-12-07T06:43:37;40.53;;;12.23;;
60233;SDS011;49514;43.538;-5.708;2022-12-07T06:46:04;27.38;;;12.00;;
60233;SDS011;49514;43.538;-5.708;2022-12-07T06:48:31;31.92;;;12.45;;
60233;SDS011;49514;43.538;-5.708;2022-12-07T06:50:58;33.87;;;12.53;;
60233;SDS011;49514;43.538;-5.708;2022-12-07T06:53:24;45.67;;;15.07;;
60233;SDS011;49514;43.538;-5.708;2022-12-07T06:55:51;33.78;;;12.98;;
60233;SDS011;49514;43.538;-5.708;2022-12-07T06:58:18;51.00;;;16.10;;
60233;SDS011;49514;43.538;-5.708;2022-12-07T07:00:45;46.17;;;15.45;;
60233;SDS011;49514;43.538;-5.708;2022-12-07T07:03:13;44.88;;;15.90;;
60233;SDS011;49514;43.538;-5.708;2022-12-07T07:05:41;42.92;;;16.08;;
60233;SDS011;49514;43.538;-5.708;2022-12-07T07:08:08;45.17;;;15.70;;
60233;SDS011;49514;43.538;-5.708;2022-12-07T07:25:15;72.25;;;15.05;;
60233;SDS011;49514;43.538;-5.708;2022-12-07T07:27:42;62.15;;;16.13;;
60233;SDS011;49514;43.538;-5.708;2022-12-07T07:30:09;52.53;;;15.43;;
60233;SDS011;49514;43.538;-5.708;2022-12-07T07:32:36;45.78;;;14.85;;
60233;SDS011;49514;43.538;-5.708;2022-12-07T07:35:03;51.80;;;17.88;;
60233;SDS011;49514;43.538;-5.708;2022-12-07T07:37:30;40.75;;;14.25;;
60233;SDS011;49514;43.538;-5.708;2022-12-07T07:39:57;47.85;;;16.42;;
60233;SDS011;49514;43.538;-5.708;2022-12-07T07:42:23;39.72;;;15.07;;
60233;SDS011;49514;43.538;-5.708;2022-12-07T07:44:50;50.33;;;16.67;;
60233;SDS011;49514;43.538;-5.708;2022-12-07T07:47:17;45.08;;;15.02;;
60233;SDS011;49514;43.538;-5.708;2022-12-07T07:49:43;41.80;;;13.35;;
60233;SDS011;49514;43.538;-5.708;2022-12-07T07:52:10;33.67;;;12.82;;
60233;SDS011;49514;43.538;-5.708;2022-12-07T07:54:36;31.77;;;11.43;;
60233;SDS011;49514;43.538;-5.708;2022-12-07T07:57:03;30.15;;;9.98;;
60233;SDS011;49514;43.538;-5.708;2022-12-07T07:59:30;34.22;;;9.40;;
60233;SDS011;49514;43.538;-5.708;2022-12-07T08:01:56;27.13;;;9.73;;
60233;SDS011;49514;43.538;-5.708;2022-12-07T08:04:23;20.40;;;8.90;;
60233;SDS011;49514;43.538;-5.708;2022-12-07T08:06:49;24.02;;;9.80;;
60233;SDS011;49514;43.538;-5.708;2022-12-07T08:09:16;36.13;;;13.45;;
60233;SDS011;49514;43.538;-5.708;2022-12-07T08:11:43;48.72;;;13.50;;
60233;SDS011;49514;43.538;-5.708;2022-12-07T08:14:11;30.63;;;13.30;;
60233;SDS011;49514;43.538;-5.708;2022-12-07T08:16:37;31.52;;;11.65;;
60233;SDS011;49514;43.538;-5.708;2022-12-07T08:19:04;29.83;;;11.10;;
60233;SDS011;49514;43.538;-5.708;2022-12-07T08:21:31;30.00;;;10.18;;
60233;SDS011;49514;43.538;-5.708;2022-12-07T08:23:58;26.90;;;10.15;;
60233;SDS011;49514;43.538;-5.708;2022-12-07T08:26:25;31.80;;;12.57;;
60233;SDS011;49514;43.538;-5.708;2022-12-07T08:28:52;30.25;;;13.30;;
60233;SDS011;49514;43.538;-5.708;2022-12-07T08:31:19;25.08;;;10.70;;
60233;SDS011;49514;43.538;-5.708;2022-12-07T08:33:47;28.20;;;10.68;;
60233;SDS011;49514;43.538;-5.708;2022-12-07T08:36:14;33.45;;;10.98;;
60233;SDS011;49514;43.538;-5.708;2022-12-07T08:38:42;52.00;;;13.32;;
60233;SDS011;49514;43.538;-5.708;2022-12-07T08:41:09;33.97;;;11.68;;
60233;SDS011;49514;43.538;-5.708;2022-12-07T08:43:36;33.30;;;11.45;;
60233;SDS011;49514;43.538;-5.708;2022-12-07T08:48:33;38.97;;;11.05;;
60233;SDS011;49514;43.538;-5.708;2022-12-07T08:51:03;30.23;;;11.73;;
60233;SDS011;49514;43.538;-5.708;2022-12-07T08:53:30;24.00;;;10.73;;
60233;SDS011;49514;43.538;-5.708;2022-12-07T08:55:58;31.52;;;11.30;;
60233;SDS011;49514;43.538;-5.708;2022-12-07T08:58:25;29.08;;;11.60;;
60233;SDS011;49514;43.538;-5.708;2022-12-07T09:00:52;32.33;;;12.45;;
60233;SDS011;49514;43.538;-5.708;2022-12-07T09:03:19;23.88;;;10.57;;
60233;SDS011;49514;43.538;-5.708;2022-12-07T09:05:45;23.60;;;10.57;;
60233;SDS011;49514;43.538;-5.708;2022-12-07T09:08:12;23.52;;;11.10;;
60233;SDS011;49514;43.538;-5.708;2022-12-07T09:10:39;26.23;;;13.00;;
60233;SDS011;49514;43.538;-5.708;2022-12-07T09:13:06;29.85;;;12.48;;
60233;SDS011;49514;43.538;-5.708;2022-12-07T09:15:33;32.47;;;14.37;;
60233;SDS011;49514;43.538;-5.708;2022-12-07T09:18:00;28.45;;;13.90;;
60233;SDS011;49514;43.538;-5.708;2022-12-07T09:20:26;27.67;;;14.85;;
60233;SDS011;49514;43.538;-5.708;2022-12-07T09:22:53;31.52;;;14.77;;
60233;SDS011;49514;43.538;-5.708;2022-12-07T09:25:20;24.10;;;12.88;;
60233;SDS011;49514;43.538;-5.708;2022-12-07T09:27:46;25.23;;;11.32;;
60233;SDS011;49514;43.538;-5.708;2022-12-07T09:30:13;31.55;;;10.77;;
60233;SDS011;49514;43.538;-5.708;2022-12-07T09:32:40;38.75;;;10.98;;
60233;SDS011;49514;43.538;-5.708;2022-12-07T09:35:07;43.70;;;10.95;;
60233;SDS011;49514;43.538;-5.708;2022-12-07T09:37:34;36.35;;;11.57;;
60233;SDS011;49514;43.538;-5.708;2022-12-07T09:40:02;45.60;;;11.48;;
60233;SDS011;49514;43.538;-5.708;2022-12-07T09:42:34;35.85;;;12.85;;
60233;SDS011;49514;43.538;-5.708;2022-12-07T09:45:06;49.13;;;13.70;;
60233;SDS011;49514;43.538;-5.708;2022-12-07T09:47:38;32.83;;;11.47;;
60233;SDS011;49514;43.538;-5.708;2022-12-07T09:50:06;27.15;;;11.68;;
60233;SDS011;49514;43.538;-5.708;2022-12-07T09:52:39;31.13;;;10.97;;
60233;SDS011;49514;43.538;-5.708;2022-12-07T09:55:11;31.05;;;11.55;;
60233;SDS011;49514;43.538;-5.708;2022-12-07T09:57:39;28.88;;;10.85;;
60233;SDS011;49514;43.538;-5.708;2022-12-07T10:00:10;32.45;;;12.48;;
60233;SDS011;49514;43.538;-5.708;2022-12-07T10:02:42;39.13;;;14.48;;
60233;SDS011;49514;43.538;-5.708;2022-12-07T10:05:19;35.20;;;14.65;;
60233;SDS011;49514;43.538;-5.708;2022-12-07T10:07:52;41.92;;;14.23;;
60233;SDS011;49514;43.538;-5.708;2022-12-07T10:10:26;52.10;;;18.13;;
60233;SDS011;49514;43.538;-5.708;2022-12-07T10:12:58;46.33;;;16.90;;
60233;SDS011;49514;43.538;-5.708;2022-12-07T10:23:35;33.45;;;10.32;;
60233;SDS011;49514;43.538;-5.708;2022-12-07T10:26:20;33.25;;;10.48;;
60233;SDS011;49514;43.538;-5.708;2022-12-07T11:07:46;32.15;;;11.77;;
60233;SDS011;49514;43.538;-5.708;2022-12-07T11:16:09;22.88;;;9.18;;
60233;SDS011;49514;43.538;-5.708;2022-12-07T11:18:51;21.38;;;7.50;;
60233;SDS011;49514;43.538;-5.708;2022-12-07T11:24:18;15.13;;;6.82;;
60233;SDS011;49514;43.538;-5.708;2022-12-07T11:30:20;21.50;;;7.90;;
60233;SDS011;49514;43.538;-5.708;2022-12-07T12:24:17;10.73;;;3.67;;
60233;SDS011;49514;43.538;-5.708;2022-12-07T13:20:41;5.60;;;2.20;;
60233;SDS011;49514;43.538;-5.708;2022-12-07T13:23:14;9.20;;;2.72;;
60233;SDS011;49514;43.538;-5.708;2022-12-07T13:28:33;6.07;;;2.30;;
60233;SDS011;49514;43.538;-5.708;2022-12-07T13:31:04;8.13;;;2.60;;
60233;SDS011;49514;43.538;-5.708;2022-12-07T13:33:36;6.05;;;2.40;;
60233;SDS011;49514;43.538;-5.708;2022-12-07T13:36:03;8.95;;;2.97;;
60233;SDS011;49514;43.538;-5.708;2022-12-07T13:38:31;8.98;;;2.60;;
60233;SDS011;49514;43.538;-5.708;2022-12-07T13:41:00;8.77;;;2.85;;
60233;SDS011;49514;43.538;-5.708;2022-12-07T13:43:43;12.00;;;2.83;;
60233;SDS011;49514;43.538;-5.708;2022-12-07T13:46:12;8.48;;;3.20;;
60233;SDS011;49514;43.538;-5.708;2022-12-07T13:48:44;10.00;;;2.90;;
60233;SDS011;49514;43.538;-5.708;2022-12-07T13:51:22;7.78;;;3.13;;
60233;SDS011;49514;43.538;-5.708;2022-12-07T13:54:09;9.40;;;3.07;;
60233;SDS011;49514;43.538;-5.708;2022-12-07T13:56:36;8.97;;;3.23;;
60233;SDS011;49514;43.538;-5.708;2022-12-07T13:59:05;9.23;;;3.38;;
60233;SDS011;49514;43.538;-5.708;2022-12-07T14:01:47;8.15;;;3.25;;
60233;SDS011;49514;43.538;-5.708;2022-12-07T14:04:19;10.75;;;3.42;;
60233;SDS011;49514;43.538;-5.708;2022-12-07T14:07:15;11.67;;;3.57;;
60233;SDS011;49514;43.538;-5.708;2022-12-07T14:12:25;9.35;;;3.00;;
60233;SDS011;49514;43.538;-5.708;2022-12-07T14:14:56;7.53;;;3.00;;
60233;SDS011;49514;43.538;-5.708;2022-12-07T14:37:42;11.00;;;3.08;;
60233;SDS011;49514;43.538;-5.708;2022-12-07T14:40:16;8.93;;;2.65;;
60233;SDS011;49514;43.538;-5.708;2022-12-07T14:50:18;6.68;;;2.38;;
60233;SDS011;49514;43.538;-5.708;2022-12-07T14:52:56;12.20;;;2.85;;
60233;SDS011;49514;43.538;-5.708;2022-12-07T14:55:26;10.07;;;2.50;;
60233;SDS011;49514;43.538;-5.708;2022-12-07T14:57:55;8.90;;;2.65;;
60233;SDS011;49514;43.538;-5.708;2022-12-07T15:00:23;16.08;;;2.50;;
60233;SDS011;49514;43.538;-5.708;2022-12-07T15:02:52;9.23;;;2.88;;
60233;SDS011;49514;43.538;-5.708;2022-12-07T15:05:19;13.80;;;2.60;;
60233;SDS011;49514;43.538;-5.708;2022-12-07T15:07:48;12.35;;;3.20;;
60233;SDS011;49514;43.538;-5.708;2022-12-07T15:10:19;15.85;;;3.20;;
60233;SDS011;49514;43.538;-5.708;2022-12-07T15:12:55;10.15;;;3.28;;
60233;SDS011;49514;43.538;-5.708;2022-12-07T15:15:46;10.80;;;2.95;;
60233;SDS011;49514;43.538;-5.708;2022-12-07T15:18:14;11.82;;;2.90;;
60233;SDS011;49514;43.538;-5.708;2022-12-07T15:20:42;9.63;;;3.22;;
60233;SDS011;49514;43.538;-5.708;2022-12-07T15:23:09;12.35;;;3.05;;
60233;SDS011;49514;43.538;-5.708;2022-12-07T15:25:40;12.30;;;2.72;;
60233;SDS011;49514;43.538;-5.708;2022-12-07T15:28:10;5.67;;;2.43;;
60233;SDS011;49514;43.538;-5.708;2022-12-07T15:30:38;11.80;;;2.53;;
60233;SDS011;49514;43.538;-5.708;2022-12-07T15:33:06;10.65;;;2.97;;
60233;SDS011;49514;43.538;-5.708;2022-12-07T15:35:33;9.10;;;2.50;;
60233;SDS011;49514;43.538;-5.708;2022-12-07T15:37:59;10.68;;;2.88;;
60233;SDS011;49514;43.538;-5.708;2022-12-07T15:40:27;9.38;;;2.55;;
60233;SDS011;49514;43.538;-5.708;2022-12-07T15:42:55;9.45;;;3.00;;
60233;SDS011;49514;43.538;-5.708;2022-12-07T15:45:22;11.75;;;3.05;;
60233;SDS011;49514;43.538;-5.708;2022-12-07T15:47:48;10.43;;;3.58;;
60233;SDS011;49514;43.538;-5.708;2022-12-07T15:50:16;7.40;;;2.80;;
60233;SDS011;49514;43.538;-5.708;2022-12-07T15:52:43;6.65;;;2.50;;
60233;SDS011;49514;43.538;-5.708;2022-12-07T15:55:13;8.93;;;2.55;;
60233;SDS011;49514;43.538;-5.708;2022-12-07T15:57:40;10.00;;;2.50;;
60233;SDS011;49514;43.538;-5.708;2022-12-07T16:00:08;5.68;;;2.40;;
60233;SDS011;49514;43.538;-5.708;2022-12-07T16:02:36;13.20;;;2.72;;
60233;SDS011;49514;43.538;-5.708;2022-12-07T16:05:03;7.63;;;2.80;;
60233;SDS011;49514;43.538;-5.708;2022-12-07T16:07:30;13.35;;;2.30;;
60233;SDS011;49514;43.538;-5.708;2022-12-07T16:09:57;10.45;;;2.50;;
60233;SDS011;49514;43.538;-5.708;2022-12-07T16:12:23;8.07;;;2.70;;
60233;SDS011;49514;43.538;-5.708;2022-12-07T16:14:51;7.53;;;2.85;;
60233;SDS011;49514;43.538;-5.708;2022-12-07T16:17:17;8.20;;;2.63;;
60233;SDS011;49514;43.538;-5.708;2022-12-07T16:19:44;10.52;;;2.63;;
60233;SDS011;49514;43.538;-5.708;2022-12-07T16:22:11;12.80;;;3.55;;
60233;SDS011;49514;43.538;-5.708;2022-12-07T16:24:38;8.35;;;2.60;;
60233;SDS011;49514;43.538;-5.708;2022-12-07T16:27:05;5.88;;;2.42;;
60233;SDS011;49514;43.538;-5.708;2022-12-07T16:29:32;9.02;;;2.72;;
60233;SDS011;49514;43.538;-5.708;2022-12-07T16:31:58;6.95;;;2.58;;
60233;SDS011;49514;43.538;-5.708;2022-12-07T16:34:26;9.27;;;2.85;;
60233;SDS011;49514;43.538;-5.708;2022-12-07T16:36:52;9.05;;;3.08;;
60233;SDS011;49514;43.538;-5.708;2022-12-07T16:39:19;8.88;;;2.47;;
60233;SDS011;49514;43.538;-5.708;2022-12-07T16:41:46;11.43;;;3.33;;
60233;SDS011;49514;43.538;-5.708;2022-12-07T16:44:13;6.10;;;2.30;;
60233;SDS011;49514;43.538;-5.708;2022-12-07T16:46:40;12.90;;;2.72;;
60233;SDS011;49514;43.538;-5.708;2022-12-07T16:49:10;11.85;;;2.72;;
60233;SDS011;49514;43.538;-5.708;2022-12-07T16:51:38;8.93;;;3.03;;
60233;SDS011;49514;43.538;-5.708;2022-12-07T16:54:05;9.15;;;2.70;;
60233;SDS011;49514;43.538;-5.708;2022-12-07T16:56:32;6.05;;;2.20;;
60233;SDS011;49514;43.538;-5.708;2022-12-07T16:58:59;10.02;;;2.53;;
60233;SDS011;49514;43.538;-5.708;2022-12-07T17:01:25;5.75;;;3.15;;
60233;SDS011;49514;43.538;-5.708;2022-12-07T17:03:55;9.95;;;2.38;;
60233;SDS011;49514;43.538;-5.708;2022-12-07T17:06:24;11.85;;;3.17;;
60233;SDS011;49514;43.538;-5.708;2022-12-07T17:08:53;12.02;;;2.88;;
60233;SDS011;49514;43.538;-5.708;2022-12-07T17:11:22;11.68;;;3.60;;
60233;SDS011;49514;43.538;-5.708;2022-12-07T17:13:52;9.07;;;3.13;;
60233;SDS011;49514;43.538;-5.708;2022-12-07T17:16:38;7.57;;;2.80;;
60233;SDS011;49514;43.538;-5.708;2022-12-07T17:19:05;12.68;;;2.95;;
60233;SDS011;49514;43.538;-5.708;2022-12-07T17:21:34;9.15;;;2.60;;
60233;SDS011;49514;43.538;-5.708;2022-12-07T17:24:02;7.55;;;2.88;;
60233;SDS011;49514;43.538;-5.708;2022-12-07T17:26:30;7.55;;;2.90;;
60233;SDS011;49514;43.538;-5.708;2022-12-07T17:28:58;9.20;;;2.97;;
60233;SDS011;49514;43.538;-5.708;2022-12-07T17:31:25;11.85;;;3.20;;
60233;SDS011;49514;43.538;-5.708;2022-12-07T17:33:52;10.80;;;3.08;;
60233;SDS011;49514;43.538;-5.708;2022-12-07T17:36:23;5.45;;;2.88;;
60233;SDS011;49514;43.538;-5.708;2022-12-07T17:38:52;8.85;;;3.40;;
60233;SDS011;49514;43.538;-5.708;2022-12-07T17:41:26;9.75;;;3.65;;
60233;SDS011;49514;43.538;-5.708;2022-12-07T17:44:13;12.48;;;4.35;;
60233;SDS011;49514;43.538;-5.708;2022-12-07T17:46:43;13.18;;;4.10;;
60233;SDS011;49514;43.538;-5.708;2022-12-07T17:49:11;9.02;;;3.75;;
60233;SDS011;49514;43.538;-5.708;2022-12-07T17:51:40;12.27;;;2.90;;
60233;SDS011;49514;43.538;-5.708;2022-12-07T17:54:25;11.52;;;3.22;;
60233;SDS011;49514;43.538;-5.708;2022-12-07T17:56:52;10.43;;;3.20;;
60233;SDS011;49514;43.538;-5.708;2022-12-07T17:59:19;11.73;;;2.72;;
60233;SDS011;49514;43.538;-5.708;2022-12-07T18:01:45;7.18;;;3.10;;
60233;SDS011;49514;43.538;-5.708;2022-12-07T18:04:12;11.30;;;3.03;;
60233;SDS011;49514;43.538;-5.708;2022-12-07T18:06:39;12.90;;;3.17;;
60233;SDS011;49514;43.538;-5.708;2022-12-07T18:09:06;8.63;;;3.13;;
60233;SDS011;49514;43.538;-5.708;2022-12-07T18:11:33;9.30;;;2.65;;
60233;SDS011;49514;43.538;-5.708;2022-12-07T18:14:01;11.38;;;3.50;;
60233;SDS011;49514;43.538;-5.708;2022-12-07T18:16:29;7.15;;;3.10;;
60233;SDS011;49514;43.538;-5.708;2022-12-07T18:18:59;11.52;;;3.47;;
60233;SDS011;49514;43.538;-5.708;2022-12-07T18:21:28;13.52;;;4.10;;
60233;SDS011;49514;43.538;-5.708;2022-12-07T18:23:56;14.45;;;4.18;;
60233;SDS011;49514;43.538;-5.708;2022-12-07T18:26:29;7.38;;;3.35;;
60233;SDS011;49514;43.538;-5.708;2022-12-07T18:28:58;7.50;;;2.88;;
60233;SDS011;49514;43.538;-5.708;2022-12-07T18:31:25;13.38;;;3.85;;
60233;SDS011;49514;43.538;-5.708;2022-12-07T18:33:53;10.48;;;4.05;;
60233;SDS011;49514;43.538;-5.708;2022-12-07T18:36:23;10.48;;;3.63;;
60233;SDS011;49514;43.538;-5.708;2022-12-07T18:38:50;7.03;;;3.47;;
60233;SDS011;49514;43.538;-5.708;2022-12-07T18:41:17;10.20;;;4.20;;
60233;SDS011;49514;43.538;-5.708;2022-12-07T18:43:45;10.98;;;3.90;;
60233;SDS011;49514;43.538;-5.708;2022-12-07T18:46:13;6.95;;;3.47;;